Résultats

Cyclo Ventoux Sud - 145km. Édition 2021.

145 Km
12/09/2021 à 08:30:00 - Mallemort-du-Comtat (Vaucluse)
129 arrivant(e)s.


 
Les autres classements de cet évènement




Place▲ Temps Dossard Nom Prenom Categ #Categ Sexe #Sexe Club Vit Moy Diplôme Partager
1 03:45:25 1871 GRIECO LUCAS M1 1 M 1 AC BEAUMES DE VENISE 38.60
2 03:45:35 1898 MINNAERT MICHEL M1 2 M 2 STOREX GRANFONDOTEAM 38.57
3 03:48:07 1824 CAMBIER CLEMENT M1 3 M 3 VELO SPORT CASTRAIS 38.14
4 03:48:16 1929 TRISTANI HUGO M2 1 M 4 38.11
5 03:48:33 1855 ENJALBERT PAUL M2 2 M 5 CVC MONTFAVET 38.07
6 03:49:03 1891 LORTHIOIR PAUL-EMILE M2 3 M 6 TEAM MANON 37.98
7 03:49:35 1836 COMBES CORENTIN M1 4 M 7 CHAUD BOUILLANT 37.89
8 03:49:36 1912 REYNAUD NICOLAS M3 1 M 8 VC VILLEFRANCHE BEAUJOLAIS 37.89
9 03:49:55 1919 SALA STEFANO M3 2 M 9 ASD SYSTEM CARS MEDA 37.84
10 03:52:55 1829 CAUCHETEUX FRANCOIS M1 5 M 10 37.35
11 03:53:21 1808 BECARUD THOMAS M2 4 M 11 TEAM CSC 37.28
12 03:53:39 1906 PESCE JULIEN M2 5 M 12 ISTRES SPORT CYCLISME 37.24
13 03:55:16 1935 VENEL THOMAS M3 3 M 13 TEAM DESMET VALOXIA 36.98
14 03:56:03 1821 BROCARD PHILIPPE M2 6 M 14 TRIATHLON TOULOUSE METROPOLE 36.86
15 03:59:02 1942 ZAMAGNA VINCENZO M1 6 M 15 VC LA POMME MARSEILLE 36.40
16 03:59:22 1842 CUENIN DAVID M2 7 M 16 36.35
17 03:59:48 1841 CRETE BASTIEN M1 7 M 17 UCSV 36.28
18 04:00:27 1861 FOLI ALEXANDRE M2 8 M 18 AC ORANGE 36.18
19 04:00:45 1809 BECCHETTI NICOLAS M2 9 M 19 SPRINTER NICE METROPOLE 36.14
20 04:01:18 1890 LONG RICHARD M4 1 M 20 ROUE D'OR BRIGNOLES 36.05
21 04:03:51 1876 JEAN LEON M3 4 M 21 TEAM POLI LOOK 35.68
22 04:04:00 1907 POTIER GUILLAUME M2 10 M 22 CYCLO SPORT CIOTADEN 35.66
23 04:04:37 1952 ROBERT SYLVAIN M2 11 M 23 CVC MONTFAVET 35.57
24 04:05:04 1894 MARCHAND-VUILLON ACHILLE M1 8 M 24 TEAM POLI LOOK 35.50
25 04:05:20 1936 VERA RAPHAEL M1 9 M 25 VTT RANDO 04 35.46
26 04:05:23 1848 DELLA-COLETTA HERVE M2 12 M 26 35.45
27 04:05:39 1928 TORNEY CLEMENT M1 10 M 27 VELO CLUB APT 35.42
28 04:05:41 1882 LAURENT REGIS M4 2 M 28 CYCLO SPORT CAVAILLON 35.41
29 04:05:49 1881 LAMIRAUX CEDRIC M1 11 M 29 GALLARDO SPORTS 35.39
30 04:06:19 1953 BIAGETTI DAVID M4 3 M 30 ISTRES SPORT CYCLISME 35.32
31 04:09:21 1878 JULLIEN-PALETIER ANTONIN M1 12 M 31 VELO CLUB LE THOR GADAGNE 34.89
32 04:10:13 1832 CHANTON CHRISTOPHE M3 5 M 32 USC-VAISON LA ROMAINE 34.77
33 04:11:05 1820 BREMOND DAVID M3 6 M 33 POLI:TCDV ORAISON 34.65
34 04:11:05 1828 CARTAL MARC M5 1 M 34 ASPESSAVOIE 34.65
35 04:11:45 1806 BAROU YORICK M1 13 M 35 GMC38-EF 34.56
36 04:12:01 1889 LOIC BLOCQUET M2 13 M 36 34.52
37 04:12:21 1951 COLETTE DAMIEN M2 14 M 37 34.48
38 04:12:25 1849 DELLA-SANTINA OLIVIER M2 15 M 38 34.47
39 04:13:54 1918 SABOURIN GAETAN M3 7 M 39 TEAM FSPN 34.27
40 04:14:02 1817 BOUKILI MEHDI M3 8 M 40 VCISLOIS 34.25
41 04:17:01 1858 FEREIRE BRUNO M4 4 M 41 AS FRAMATOME 33.85
42 04:18:22 1839 CORREGGIO PASCAL M5 2 M 42 POLI:TCDV ORAISON 33.67
43 04:19:24 1887 LEROY BAPTISTE M1 14 M 43 VELO CLUB SAUVETERROIS 33.54
44 04:19:26 1886 LEROUX XAVIER M2 16 M 44 33.53
45 04:21:34 1909 REINERT DELPHINE W2 1 F 1 POLI:TCDV ORAISON 33.26
46 04:21:40 1873 GUITTON PASCAL M3 9 M 45 VELO CLUB DES ALPILLES 33.25
47 04:21:41 1938 CRESTEY ALEXANDRE M1 15 M 46 VC DES ALPILLES 33.25
48 04:21:45 1805 AUBENAS OLIVIA W2 2 F 2 UCSV 33.24
49 04:21:45 1930 VAN-BROEKHOVEN RONALD M4 5 M 47 GRANFONDOTEAM WCB 33.24
50 04:21:55 1863 FREDERIKSEN DEREK M4 6 M 48 33.22
51 04:22:04 1943 PILIPAC GREGORY M3 10 M 49 CSB LA BOUILLADISSE 33.20
52 04:22:22 1940 CHEVAILLIER JEREMIE M1 16 M 50 TEAM POLI LOOK 33.16
53 04:22:35 1819 BREFFI FERDINAND M2 17 M 51 33.13
54 04:22:45 1813 BEUDEZ NICOLAS M2 18 M 52 CYCLO CLUB ORANGEOIS 33.11
55 04:22:47 1920 SAUZE ETIENNE M4 7 M 53 U.C. GESSIENNE 33.11
56 04:23:06 1869 GOMEZ GILBERT M5 3 M 54 VCLES3C 33.07
57 04:23:09 1883 LEDUC DOMINIQUE M4 8 M 55 VELO CLUB 3C 33.06
58 04:23:14 1807 BEAUMOND PHILIPPE M5 4 M 56 VTT DU GARLABAN 33.05
59 04:23:16 1913 RICHY MICHAEL M2 19 M 57 USCV VAISON LA ROMAINE 33.05
60 04:23:17 1859 FERNANDEZ DANIEL M4 9 M 58 VELO CLUB RAMBERTOIS 33.04
61 04:23:38 1901 O'CONNOR PHIL M3 11 M 59 SHUTT VELO RAPIDE 33.00
62 04:23:42 1911 RENOU DANIEL M5 5 M 60 TEAM COMPETITION DURANCE VERDON 32.99
63 04:23:48 1875 HOORNE KEVIN M3 12 M 61 32.98
64 04:23:51 1893 MANZATO ANITA W3 1 F 3 VIVI 32.97
65 04:24:43 1851 DETIENNE CEDRIC M3 13 M 62 TEAM FSPN 32.87
66 04:24:53 1827 CAROSSI JEAN-SEBASTIEN M4 10 M 63 VC APT 32.84
67 04:25:24 1840 CRESPO DENIS M3 14 M 64 VELO+ 32.78
68 04:25:47 1854 DUQUENNE BRUNO M3 15 M 65 USC VAISON LA ROMAINE 32.73
69 04:27:39 1856 ESPINOZA-BAEZA DARWIN M2 20 M 66 CYCLO SPORT CAVAILLON 32.51
70 04:27:45 1822 BRUN CEDRIC M1 17 M 67 32.49
71 04:28:37 1917 RUSSO ERIC M3 16 M 68 MJC PLAN DE CUCQUES 32.39
72 04:29:45 1844 DALSKY ANTHONY M1 18 M 69 TEAM FLIXECOURT 80 32.25
73 04:33:47 1937 VILLENEUVE MICHEL M4 11 M 70 MJC PLAN DE CUQUES 31.78
74 04:34:16 1867 GOLVET STEPHANE M2 21 M 71 31.72
75 04:34:27 1927 TIGE REGIS M4 12 M 72 CYCLO CLUB MAZAN 31.70
76 04:35:36 1904 PECQUEUR JEAN-MICHEL M4 13 M 73 TEAM FSPN 31.57
77 04:35:48 1916 ROUX STEPHANE M3 17 M 74 31.54
78 04:35:58 1925 SOUBRIER STEPHANE M4 14 M 75 31.53
79 04:36:12 1931 VAN-DER-HEIJDEN DS M3 18 M 76 GRAN FONDOTEAM WCB 31.50
80 04:36:19 1941 SAINZ ANDRE M5 6 M 77 CHATONNAY ST ANNE 31.49
81 04:36:20 1939 CORDES SYLVIE W4 1 F 4 CS CAVAILLON 31.48
82 04:36:40 1860 FLORET STEPHANE M3 19 M 78 TEAM FSPN 31.45
83 04:37:15 1870 GOORDEN MARINUS M4 15 M 79 31.38
84 04:37:27 1954 ALESSIO VINCENT M3 20 M 80 31.36
85 04:37:32 1874 HAAST INGRID W3 2 F 5 31.35
86 04:37:37 1823 BUCCI GREGORY M3 21 M 81 31.34
87 04:37:41 1850 DENERY MAXIME M2 22 M 82 31.33
88 04:37:57 1903 PATRICK VERROT M4 16 M 83 FRIOL CLUB TAIN TOURNON 31.30
89 04:38:09 1908 RASTELLO NICOLAS M3 22 M 84 MJC PLAN DE CUQUES 31.28
90 04:41:53 1880 LALLE MICKAEL M3 23 M 85 TEAM FSPN 30.86
91 04:43:14 1845 DE-BRUIN RALF M3 24 M 86 RTC MONTFOORT 30.72
92 04:43:44 1922 SCHEERDERS SANDER M3 25 M 87 CS030 30.66
93 04:45:06 1826 CARME SERGE M5 7 M 88 MJC PLAN DE CUQUES 30.52
94 04:45:36 1816 BONNET MICHEL M4 17 M 89 ECSL 30.46
95 04:46:08 1872 GROSSE AURELIE W2 3 F 6 30.41
96 04:46:54 1892 MANDERS HANS M5 8 M 90 30.32
97 04:51:03 1803 ANDRE DIDIER M4 18 M 91 VELO CLUB ISLOIS 29.89
98 04:51:05 1825 CAMBOURS CORALINE W3 3 F 7 L.A SPORT CONSEIL 29.89
99 04:52:21 1834 CHAUVIN CYRILLE M4 19 M 92 UNION CYCLISTE ST SATURNIN VEDENE 29.76
100 04:52:38 1900 MONTGERMONT SAMUEL M3 26 M 93 TEAM VENTOUX 29.73